createdAt,value
2022-12-29T00:02:51.895Z,8.99
2022-12-29T00:09:21.536Z,9.01
2022-12-29T00:15:47.505Z,9.02
2022-12-29T00:18:50.414Z,9.22
2022-12-29T00:22:11.789Z,9.16
2022-12-29T00:25:32.638Z,9.01
2022-12-29T00:28:55.449Z,9.04
2022-12-29T00:32:17.126Z,9.23
2022-12-29T00:35:28.852Z,9.12
2022-12-29T00:38:52.967Z,9.01
2022-12-29T00:42:13.538Z,9.11
2022-12-29T00:45:18.901Z,9.08
2022-12-29T00:48:43.007Z,9.06
2022-12-29T00:51:44.747Z,9.19
2022-12-29T00:58:09.507Z,9.13
2022-12-29T01:01:15.119Z,9.05
2022-12-29T01:04:19.101Z,9.09
2022-12-29T01:07:21.808Z,9.32
2022-12-29T01:10:24.734Z,9.25
2022-12-29T01:13:27.725Z,9.14
2022-12-29T01:16:33.404Z,9.20
2022-12-29T01:19:36.148Z,9.24
2022-12-29T01:22:40.480Z,9.31
2022-12-29T01:25:44.461Z,9.19
2022-12-29T01:28:47.165Z,9.22
2022-12-29T01:31:52.832Z,9.14
2022-12-29T01:34:55.610Z,9.20
2022-12-29T01:37:59.651Z,9.32
2022-12-29T01:41:03.644Z,9.32
2022-12-29T01:44:39.641Z,9.46
2022-12-29T01:47:51.347Z,9.26
2022-12-29T01:50:56.969Z,9.25
2022-12-29T01:54:03.883Z,9.23
2022-12-29T01:57:13.948Z,9.28
2022-12-29T02:00:18.058Z,9.37
2022-12-29T02:03:24.930Z,9.18
2022-12-29T02:06:33.211Z,9.13
2022-12-29T02:09:35.975Z,9.15
2022-12-29T02:12:39.985Z,9.11
2022-12-29T02:15:53.946Z,9.19
2022-12-29T02:19:14.740Z,9.35
2022-12-29T02:22:28.337Z,9.24
2022-12-29T02:25:57.552Z,9.28
2022-12-29T02:29:25.976Z,9.38
2022-12-29T02:32:40.696Z,9.34
2022-12-29T02:35:52.778Z,9.37
2022-12-29T02:39:07.798Z,9.32
2022-12-29T02:42:16.558Z,9.38
2022-12-29T02:45:25.926Z,9.46
2022-12-29T02:48:34.583Z,9.48
2022-12-29T02:51:43.515Z,9.46
2022-12-29T02:58:29.157Z,9.62
2022-12-29T03:02:08.410Z,9.60
2022-12-29T03:05:22.296Z,9.67
2022-12-29T03:08:32.682Z,9.58
2022-12-29T03:12:01.441Z,9.59
2022-12-29T03:15:30.107Z,9.82
2022-12-29T03:18:42.657Z,9.97
2022-12-29T03:22:09.630Z,9.87
2022-12-29T03:25:17.759Z,9.87
2022-12-29T03:28:26.120Z,9.92
2022-12-29T03:31:28.888Z,9.94
2022-12-29T03:34:35.006Z,9.93
2022-12-29T03:37:41.326Z,10.07
2022-12-29T03:40:49.063Z,10.00
2022-12-29T03:43:53.043Z,10.00
2022-12-29T03:46:55.758Z,10.02
2022-12-29T03:49:59.736Z,10.08
2022-12-29T03:53:03.817Z,10.20
2022-12-29T03:56:08.173Z,10.15
2022-12-29T03:59:10.939Z,10.16
2022-12-29T04:02:15.339Z,10.13
2022-12-29T04:05:19.406Z,10.20
2022-12-29T04:08:23.432Z,10.36
2022-12-29T04:11:32.821Z,10.31
2022-12-29T04:14:36.058Z,10.37
2022-12-29T04:17:39.986Z,10.49
2022-12-29T04:21:01.315Z,10.36
2022-12-29T04:24:07.384Z,10.38
2022-12-29T04:27:11.469Z,10.51
2022-12-29T04:30:14.489Z,10.63
2022-12-29T04:33:19.201Z,10.43
2022-12-29T04:36:29.558Z,10.38
2022-12-29T04:39:35.244Z,10.49
2022-12-29T04:42:39.255Z,10.41
2022-12-29T04:45:45.506Z,10.53
2022-12-29T04:48:49.698Z,10.32
2022-12-29T04:55:15.301Z,10.52
2022-12-29T04:58:22.864Z,10.52
2022-12-29T05:01:26.138Z,10.59
2022-12-29T05:04:30.322Z,10.53
2022-12-29T05:07:35.664Z,10.60
2022-12-29T05:10:39.732Z,10.57
2022-12-29T05:17:04.435Z,10.70
2022-12-29T05:20:10.165Z,10.79
2022-12-29T05:23:14.462Z,10.90
2022-12-29T05:26:18.617Z,10.72
2022-12-29T05:29:22.765Z,10.83
2022-12-29T05:32:25.483Z,10.96
2022-12-29T05:35:29.548Z,11.05
2022-12-29T05:38:32.330Z,10.93
2022-12-29T05:41:38.017Z,11.03
2022-12-29T05:44:41.980Z,10.96
2022-12-29T05:47:44.704Z,10.83
2022-12-29T05:50:50.633Z,10.99
2022-12-29T05:53:53.568Z,11.17
2022-12-29T05:56:58.882Z,11.07
2022-12-29T06:00:02.843Z,11.02
2022-12-29T06:03:06.093Z,10.83
2022-12-29T06:06:10.758Z,10.98
2022-12-29T06:09:13.491Z,11.06
2022-12-29T06:12:19.086Z,10.85
2022-12-29T06:15:21.766Z,11.09
2022-12-29T06:18:25.851Z,11.13
2022-12-29T06:21:29.862Z,11.05
2022-12-29T06:24:32.691Z,11.24
2022-12-29T06:27:38.160Z,11.06
2022-12-29T06:30:41.019Z,11.14
2022-12-29T06:33:49.694Z,11.35
2022-12-29T06:36:54.593Z,11.21
2022-12-29T06:39:57.390Z,11.28
2022-12-29T06:43:02.742Z,11.27
2022-12-29T06:46:05.967Z,11.33
2022-12-29T06:49:09.974Z,11.29
2022-12-29T06:52:13.450Z,11.42
2022-12-29T06:55:18.625Z,11.18
2022-12-29T06:58:24.527Z,11.20
2022-12-29T07:01:27.544Z,11.36
2022-12-29T07:04:31.976Z,11.33
2022-12-29T07:07:34.953Z,11.25
2022-12-29T07:10:39.075Z,11.12
2022-12-29T07:13:44.458Z,11.08
2022-12-29T07:16:48.547Z,11.27
2022-12-29T07:19:52.522Z,11.09
2022-12-29T07:22:55.592Z,11.01
2022-12-29T07:26:04.257Z,11.13
2022-12-29T07:29:09.550Z,11.12
2022-12-29T07:32:12.298Z,11.10
2022-12-29T07:35:16.334Z,11.32
2022-12-29T07:38:20.323Z,11.19
2022-12-29T07:41:24.248Z,11.10
2022-12-29T07:44:29.594Z,11.22
2022-12-29T07:47:32.306Z,11.18
2022-12-29T07:50:36.537Z,11.29
2022-12-29T07:53:39.259Z,11.33
2022-12-29T07:56:43.474Z,11.32
2022-12-29T07:59:48.927Z,11.38
2022-12-29T08:02:51.909Z,11.41
2022-12-29T08:05:56.029Z,11.35
2022-12-29T08:09:04.129Z,11.20
2022-12-29T08:12:13.488Z,11.38
2022-12-29T08:15:17.857Z,11.45
2022-12-29T08:18:21.847Z,11.41
2022-12-29T08:21:24.586Z,11.33
2022-12-29T08:24:28.619Z,11.40
2022-12-29T08:27:31.403Z,11.25
2022-12-29T08:30:37.011Z,11.29
2022-12-29T08:33:41.046Z,11.37
2022-12-29T08:36:43.799Z,11.32
2022-12-29T08:39:47.780Z,11.32
2022-12-29T08:42:50.513Z,11.21
2022-12-29T08:45:56.284Z,11.23
2022-12-29T08:49:00.400Z,11.25
2022-12-29T08:52:03.093Z,11.49
2022-12-29T08:55:07.729Z,11.57
2022-12-29T08:58:15.209Z,11.76
2022-12-29T09:01:19.463Z,11.73
2022-12-29T09:04:25.755Z,11.70
2022-12-29T09:07:28.627Z,11.95
2022-12-29T09:13:53.997Z,11.93
2022-12-29T09:17:16.683Z,12.12
2022-12-29T09:20:22.788Z,12.24
2022-12-29T09:23:25.515Z,12.53
2022-12-29T09:26:29.958Z,12.64
2022-12-29T09:29:32.711Z,12.69
2022-12-29T09:32:44.592Z,12.74
2022-12-29T09:35:54.461Z,12.88
2022-12-29T09:38:57.437Z,13.09
2022-12-29T09:42:08.680Z,13.06
2022-12-29T09:45:17.595Z,13.05
2022-12-29T09:48:27.315Z,13.21
2022-12-29T09:51:32.161Z,13.42
2022-12-29T09:54:50.815Z,13.57
2022-12-29T09:58:02.976Z,13.70
2022-12-29T10:01:07.678Z,13.46
2022-12-29T10:04:13.261Z,13.22
2022-12-29T10:07:30.839Z,13.28
2022-12-29T10:10:40.562Z,13.40
2022-12-29T10:14:01.427Z,13.33
2022-12-29T10:17:14.764Z,13.41
2022-12-29T10:20:34.428Z,13.94
2022-12-29T10:23:42.625Z,14.52
2022-12-29T10:26:48.695Z,14.38
2022-12-29T10:29:58.069Z,14.15
2022-12-29T10:33:07.131Z,13.95
2022-12-29T10:39:47.134Z,14.18
2022-12-29T10:42:53.998Z,14.11
2022-12-29T10:46:01.032Z,13.98
2022-12-29T10:49:03.885Z,14.03
2022-12-29T10:52:10.514Z,13.88
2022-12-29T10:55:17.717Z,13.95
2022-12-29T10:58:22.735Z,13.73
2022-12-29T11:01:34.143Z,14.04
2022-12-29T11:04:52.762Z,13.75
2022-12-29T11:08:02.757Z,13.73
2022-12-29T11:11:08.645Z,13.85
2022-12-29T11:14:15.332Z,13.76
2022-12-29T11:17:20.532Z,13.67
2022-12-29T11:20:33.136Z,13.90
2022-12-29T11:23:40.662Z,13.73
2022-12-29T11:26:46.526Z,13.93
2022-12-29T11:29:50.983Z,13.82
2022-12-29T11:32:55.709Z,13.90
2022-12-29T11:36:01.391Z,13.62
2022-12-29T11:39:13.711Z,13.52
2022-12-29T11:42:19.467Z,13.35
2022-12-29T11:48:50.532Z,13.07
2022-12-29T11:51:57.796Z,13.23
2022-12-29T11:55:04.761Z,12.99
2022-12-29T11:58:08.288Z,12.65
2022-12-29T12:01:20.296Z,12.64
2022-12-29T12:04:28.055Z,12.49
2022-12-29T12:07:41.947Z,12.57
2022-12-29T12:10:52.422Z,12.46
2022-12-29T12:14:03.274Z,12.37
2022-12-29T12:17:12.627Z,12.30
2022-12-29T12:20:22.957Z,12.26
2022-12-29T12:23:39.396Z,12.29
2022-12-29T12:26:55.371Z,12.18
2022-12-29T12:30:03.887Z,12.18
2022-12-29T12:33:14.238Z,12.22
2022-12-29T12:36:37.840Z,12.06
2022-12-29T12:39:51.664Z,11.98
2022-12-29T12:43:11.186Z,11.93
2022-12-29T12:46:30.193Z,12.02
2022-12-29T12:49:49.226Z,11.96
2022-12-29T12:53:12.194Z,11.92
2022-12-29T12:56:39.295Z,11.90
2022-12-29T12:59:55.723Z,11.97
2022-12-29T13:03:11.697Z,11.85
2022-12-29T13:06:24.558Z,11.96
2022-12-29T13:13:57.017Z,11.82
2022-12-29T13:17:11.045Z,11.76
2022-12-29T13:20:27.370Z,11.92
2022-12-29T13:23:36.934Z,11.69
2022-12-29T13:26:47.568Z,11.70
2022-12-29T13:30:00.395Z,11.62
2022-12-29T13:33:21.072Z,11.62
2022-12-29T13:36:30.276Z,11.66
2022-12-29T13:39:36.847Z,11.67
2022-12-29T13:42:41.036Z,11.71
2022-12-29T13:45:45.730Z,11.75
2022-12-29T13:48:54.294Z,11.73
2022-12-29T13:52:00.185Z,11.68
2022-12-29T13:55:20.977Z,11.68
2022-12-29T14:02:01.195Z,11.75
2022-12-29T14:05:18.125Z,11.64
2022-12-29T14:08:21.130Z,11.53
2022-12-29T14:11:28.045Z,11.48
2022-12-29T14:14:32.541Z,11.50
2022-12-29T14:17:36.874Z,11.43
2022-12-29T14:20:48.832Z,11.43
2022-12-29T14:23:56.169Z,11.44
2022-12-29T14:26:59.110Z,11.47
2022-12-29T14:30:03.076Z,11.35
2022-12-29T14:33:15.564Z,11.44
2022-12-29T14:36:27.967Z,11.47
2022-12-29T14:39:36.423Z,11.40
2022-12-29T14:42:42.925Z,11.50
2022-12-29T14:45:57.166Z,11.50
2022-12-29T14:49:02.089Z,11.49
2022-12-29T14:55:42.825Z,11.53
2022-12-29T14:58:51.264Z,11.39
2022-12-29T15:01:57.163Z,11.61
2022-12-29T15:05:02.789Z,11.52
2022-12-29T15:08:10.233Z,11.45
2022-12-29T15:11:16.227Z,11.08
2022-12-29T15:14:38.487Z,10.90
2022-12-29T15:17:42.460Z,10.57
2022-12-29T15:20:45.491Z,10.53
2022-12-29T15:23:51.672Z,10.57
2022-12-29T15:26:56.175Z,10.52
2022-12-29T15:30:03.843Z,10.54
2022-12-29T15:33:21.230Z,10.52
2022-12-29T15:36:25.993Z,10.46
2022-12-29T15:39:34.261Z,10.37
2022-12-29T15:42:58.771Z,10.28
2022-12-29T15:46:04.256Z,10.24
2022-12-29T15:52:35.597Z,10.10
2022-12-29T15:55:41.970Z,10.12
2022-12-29T15:58:49.838Z,10.05
2022-12-29T16:01:54.360Z,10.06
2022-12-29T16:12:00.223Z,10.20
2022-12-29T16:15:05.269Z,10.37
2022-12-29T16:18:14.931Z,10.23
2022-12-29T16:21:23.817Z,10.27
2022-12-29T16:24:33.318Z,10.21
2022-12-29T16:27:43.023Z,10.03
2022-12-29T16:30:45.792Z,10.00
2022-12-29T16:33:51.423Z,10.05
2022-12-29T16:36:56.385Z,9.94
2022-12-29T16:40:28.134Z,10.00
2022-12-29T16:43:36.294Z,10.01
2022-12-29T16:46:45.543Z,9.96
2022-12-29T16:49:54.352Z,10.03
2022-12-29T16:52:57.161Z,10.05
2022-12-29T16:56:07.065Z,10.00
2022-12-29T16:59:32.003Z,10.03
2022-12-29T17:06:08.841Z,10.06
2022-12-29T17:09:20.302Z,10.12
2022-12-29T17:12:27.923Z,10.17
2022-12-29T17:15:36.305Z,10.20
2022-12-29T17:18:39.572Z,10.33
2022-12-29T17:25:04.655Z,10.34
2022-12-29T17:28:20.142Z,10.33
2022-12-29T17:31:24.226Z,10.44
2022-12-29T17:34:28.726Z,10.51
2022-12-29T17:37:34.805Z,10.41
2022-12-29T17:40:38.932Z,10.43
2022-12-29T17:43:42.998Z,10.46
2022-12-29T17:46:49.272Z,10.49
2022-12-29T17:49:52.011Z,10.43
2022-12-29T17:56:18.913Z,10.47
2022-12-29T17:59:22.902Z,10.50
2022-12-29T18:02:31.739Z,10.47
2022-12-29T18:05:34.668Z,10.50
2022-12-29T18:08:39.811Z,10.44
2022-12-29T18:11:44.599Z,10.39
2022-12-29T18:14:48.568Z,10.47
2022-12-29T18:17:59.388Z,10.48
2022-12-29T18:21:03.396Z,10.58
2022-12-29T18:24:08.000Z,10.54
2022-12-29T18:27:13.422Z,10.45
2022-12-29T18:33:39.371Z,10.33
2022-12-29T18:36:43.306Z,10.31
2022-12-29T18:39:46.155Z,10.28
2022-12-29T18:42:50.268Z,10.36
2022-12-29T18:45:54.286Z,10.40
2022-12-29T18:48:59.784Z,10.20
2022-12-29T18:52:02.547Z,10.29
2022-12-29T18:55:07.040Z,10.22
2022-12-29T18:58:11.177Z,10.31
2022-12-29T19:01:20.825Z,10.26
2022-12-29T19:04:26.358Z,10.31
2022-12-29T19:07:29.508Z,10.27
2022-12-29T19:10:33.811Z,10.37
2022-12-29T19:13:38.200Z,10.26
2022-12-29T19:16:41.285Z,10.27
2022-12-29T19:19:46.937Z,10.26
2022-12-29T19:22:49.735Z,10.24
2022-12-29T19:25:55.798Z,10.16
2022-12-29T19:28:59.013Z,10.16
2022-12-29T19:32:03.273Z,10.28
2022-12-29T19:35:08.897Z,10.07
2022-12-29T19:38:14.849Z,10.15
2022-12-29T19:41:17.673Z,10.21
2022-12-29T19:44:21.737Z,9.99
2022-12-29T19:47:31.610Z,10.12
2022-12-29T19:50:37.576Z,10.11
2022-12-29T19:53:40.419Z,10.20
2022-12-29T19:56:45.577Z,10.19
2022-12-29T19:59:48.516Z,10.15
2022-12-29T20:02:52.777Z,10.25
2022-12-29T20:05:58.420Z,10.22
2022-12-29T20:09:02.666Z,10.15
2022-12-29T20:12:07.062Z,10.04
2022-12-29T20:15:10.483Z,10.18
2022-12-29T20:18:15.189Z,10.26
2022-12-29T20:21:23.236Z,10.14
2022-12-29T20:24:26.095Z,10.19
2022-12-29T20:27:30.383Z,10.14
2022-12-29T20:30:33.119Z,10.11
2022-12-29T20:33:39.807Z,10.10
2022-12-29T20:36:47.451Z,9.99
2022-12-29T20:39:50.741Z,10.03
2022-12-29T20:42:54.776Z,10.12
2022-12-29T20:45:57.641Z,10.21
2022-12-29T20:49:02.020Z,10.32
2022-12-29T20:52:07.297Z,10.29
2022-12-29T20:58:37.437Z,10.39
2022-12-29T21:01:47.163Z,10.26
2022-12-29T21:05:23.182Z,10.30
2022-12-29T21:08:15.600Z,10.28
2022-12-29T21:11:20.611Z,10.31
2022-12-29T21:17:45.470Z,10.35
2022-12-29T21:20:57.786Z,10.30
2022-12-29T21:24:05.548Z,10.31
2022-12-29T21:27:09.914Z,10.30
2022-12-29T21:30:15.242Z,10.41
2022-12-29T21:33:19.055Z,10.34
2022-12-29T21:36:23.057Z,10.51
2022-12-29T21:39:28.856Z,10.42
2022-12-29T21:42:31.579Z,10.28
2022-12-29T21:45:36.127Z,10.42
2022-12-29T21:48:39.866Z,10.37
2022-12-29T21:51:52.966Z,10.14
2022-12-29T21:55:05.287Z,10.10
2022-12-29T21:58:26.033Z,10.24
2022-12-29T22:01:49.081Z,10.16
2022-12-29T22:05:10.487Z,9.90
2022-12-29T22:08:30.690Z,9.83
2022-12-29T22:11:53.518Z,9.82
2022-12-29T22:14:56.239Z,9.83
2022-12-29T22:18:01.983Z,9.86
2022-12-29T22:21:05.984Z,9.78
2022-12-29T22:24:11.237Z,9.97
2022-12-29T22:30:37.171Z,9.99
2022-12-29T22:33:41.147Z,9.87
2022-12-29T22:36:43.824Z,9.79
2022-12-29T22:39:47.820Z,9.82
2022-12-29T22:42:53.219Z,9.77
2022-12-29T22:45:55.959Z,9.79
2022-12-29T22:48:59.931Z,9.84
2022-12-29T22:52:02.870Z,9.81
2022-12-29T22:55:09.320Z,9.74
2022-12-29T23:01:34.788Z,9.79
2022-12-29T23:08:03.220Z,9.79
2022-12-29T23:11:08.247Z,9.90
2022-12-29T23:17:34.226Z,9.85
2022-12-29T23:20:38.306Z,9.95
2022-12-29T23:23:58.390Z,9.83
2022-12-29T23:27:01.077Z,9.84
2022-12-29T23:30:07.420Z,9.82
2022-12-29T23:33:10.122Z,9.74
2022-12-29T23:36:14.995Z,9.78
2022-12-29T23:39:24.523Z,9.84
2022-12-29T23:42:27.281Z,9.70
2022-12-29T23:48:53.391Z,9.67
2022-12-29T23:51:57.320Z,9.60
2022-12-29T23:55:01.256Z,9.60
2022-12-29T23:58:03.976Z,9.53
